Weather at Trenton / Mountain View Airport

Public forecast

Using degrees Celsius for public forecast. Weather courtesy of forecast.io.

Closest aviation weather report (METAR) to Trenton / Mountain View Airport

Report is more than 6 hours old.

Closest report is CFB Trenton, 8.7 nm (16.1 km) WNW.

2024/06/24 06:42 (retrieved 1 day ago)

CYTR 240642Z 31010G21KT 290V350 10SM FEW013 OVC022 17/15 A2956 RMK SF2SC6 DENSITY ALT 1170FT SLP007

Closest aviation forecast (TAF) to Trenton / Mountain View Airport

Forecast is more than 12 hours old.

Closest forecast is CFB Trenton, 8.7 nm (16.1 km) WNW.

2024/06/24 18:42 (retrieved 14 hours ago)

TAF CYTR 241740Z 2418/2518 33010G20KT P6SM FEW030 FEW250 BECMG 2500/2502 30005KT BECMG 2510/2512 23008KT RMK NXT FCST BY 250000Z